sensor_id;sensor_type;location;lat;lon;timestamp;P1;durP1;ratioP1;P2;durP2;ratioP2
67762;SDS011;54566;52.022;5.582;2023-05-07T02:24:05;13.48;;;9.10;;
67762;SDS011;54566;52.022;5.582;2023-05-07T02:26:31;11.80;;;9.27;;
67762;SDS011;54566;52.022;5.582;2023-05-07T02:28:57;14.82;;;9.70;;
67762;SDS011;54566;52.022;5.582;2023-05-07T02:31:23;12.65;;;9.40;;
67762;SDS011;54566;52.022;5.582;2023-05-07T02:33:49;13.20;;;9.50;;
67762;SDS011;54566;52.022;5.582;2023-05-07T02:36:17;17.75;;;9.25;;
67762;SDS011;54566;52.022;5.582;2023-05-07T02:38:43;12.38;;;9.65;;
67762;SDS011;54566;52.022;5.582;2023-05-07T02:41:09;12.88;;;9.45;;
67762;SDS011;54566;52.022;5.582;2023-05-07T02:43:35;19.08;;;9.73;;
67762;SDS011;54566;52.022;5.582;2023-05-07T02:48:27;13.55;;;9.50;;
67762;SDS011;54566;52.022;5.582;2023-05-07T02:50:53;15.18;;;9.57;;
67762;SDS011;54566;52.022;5.582;2023-05-07T02:53:19;13.00;;;9.38;;
67762;SDS011;54566;52.022;5.582;2023-05-07T02:55:45;18.65;;;10.77;;
67762;SDS011;54566;52.022;5.582;2023-05-07T02:58:11;13.80;;;10.35;;
67762;SDS011;54566;52.022;5.582;2023-05-07T03:00:38;21.48;;;10.73;;
67762;SDS011;54566;52.022;5.582;2023-05-07T03:03:04;17.02;;;11.60;;
67762;SDS011;54566;52.022;5.582;2023-05-07T03:05:30;18.20;;;11.25;;
67762;SDS011;54566;52.022;5.582;2023-05-07T03:07:56;15.80;;;10.20;;
67762;SDS011;54566;52.022;5.582;2023-05-07T03:10:24;16.52;;;10.70;;
67762;SDS011;54566;52.022;5.582;2023-05-07T03:12:50;16.67;;;11.00;;
67762;SDS011;54566;52.022;5.582;2023-05-07T03:15:16;15.32;;;11.05;;
67762;SDS011;54566;52.022;5.582;2023-05-07T03:17:42;12.75;;;10.32;;
67762;SDS011;54566;52.022;5.582;2023-05-07T03:20:08;14.65;;;9.82;;
67762;SDS011;54566;52.022;5.582;2023-05-07T03:22:34;13.80;;;10.15;;
67762;SDS011;54566;52.022;5.582;2023-05-07T03:25:00;13.48;;;10.00;;
67762;SDS011;54566;52.022;5.582;2023-05-07T03:27:27;14.32;;;10.00;;
67762;SDS011;54566;52.022;5.582;2023-05-07T03:29:53;17.02;;;9.63;;
67762;SDS011;54566;52.022;5.582;2023-05-07T03:32:19;18.73;;;10.88;;
67762;SDS011;54566;52.022;5.582;2023-05-07T03:34:45;15.93;;;10.27;;
67762;SDS011;54566;52.022;5.582;2023-05-07T03:37:11;18.40;;;10.35;;
67762;SDS011;54566;52.022;5.582;2023-05-07T03:39:38;13.82;;;9.68;;
67762;SDS011;54566;52.022;5.582;2023-05-07T03:42:04;14.30;;;10.68;;
67762;SDS011;54566;52.022;5.582;2023-05-07T03:44:30;12.98;;;9.88;;
67762;SDS011;54566;52.022;5.582;2023-05-07T03:47:01;16.60;;;10.98;;
67762;SDS011;54566;52.022;5.582;2023-05-07T03:49:33;13.43;;;9.35;;
67762;SDS011;54566;52.022;5.582;2023-05-07T03:52:00;15.45;;;10.13;;
67762;SDS011;54566;52.022;5.582;2023-05-07T03:54:26;12.43;;;8.45;;
67762;SDS011;54566;52.022;5.582;2023-05-07T03:56:53;16.30;;;9.70;;
67762;SDS011;54566;52.022;5.582;2023-05-07T03:59:21;14.23;;;10.25;;
67762;SDS011;54566;52.022;5.582;2023-05-07T04:01:47;19.45;;;10.88;;
67762;SDS011;54566;52.022;5.582;2023-05-07T04:04:15;16.85;;;9.85;;
67762;SDS011;54566;52.022;5.582;2023-05-07T04:06:41;13.85;;;10.23;;
67762;SDS011;54566;52.022;5.582;2023-05-07T04:09:07;14.32;;;10.48;;
67762;SDS011;54566;52.022;5.582;2023-05-07T04:11:34;18.17;;;9.82;;
67762;SDS011;54566;52.022;5.582;2023-05-07T04:14:02;17.90;;;9.93;;
67762;SDS011;54566;52.022;5.582;2023-05-07T04:16:28;15.93;;;10.77;;
67762;SDS011;54566;52.022;5.582;2023-05-07T04:18:54;20.83;;;11.30;;
67762;SDS011;54566;52.022;5.582;2023-05-07T04:21:22;18.42;;;11.05;;
67762;SDS011;54566;52.022;5.582;2023-05-07T04:23:49;16.10;;;10.90;;
67762;SDS011;54566;52.022;5.582;2023-05-07T04:26:15;17.43;;;11.30;;
67762;SDS011;54566;52.022;5.582;2023-05-07T04:28:42;17.23;;;10.52;;
67762;SDS011;54566;52.022;5.582;2023-05-07T04:31:08;14.80;;;11.00;;
67762;SDS011;54566;52.022;5.582;2023-05-07T04:33:36;16.15;;;11.23;;
67762;SDS011;54566;52.022;5.582;2023-05-07T04:36:03;19.48;;;11.05;;
67762;SDS011;54566;52.022;5.582;2023-05-07T04:38:31;17.30;;;11.23;;
67762;SDS011;54566;52.022;5.582;2023-05-07T04:40:58;16.98;;;11.35;;
67762;SDS011;54566;52.022;5.582;2023-05-07T04:43:24;16.92;;;11.07;;
67762;SDS011;54566;52.022;5.582;2023-05-07T04:45:53;16.10;;;11.02;;
67762;SDS011;54566;52.022;5.582;2023-05-07T04:48:19;15.85;;;11.45;;
67762;SDS011;54566;52.022;5.582;2023-05-07T04:50:51;17.10;;;11.18;;
67762;SDS011;54566;52.022;5.582;2023-05-07T04:53:17;15.63;;;11.60;;
67762;SDS011;54566;52.022;5.582;2023-05-07T04:55:44;16.45;;;11.15;;
67762;SDS011;54566;52.022;5.582;2023-05-07T04:58:11;17.00;;;10.95;;
67762;SDS011;54566;52.022;5.582;2023-05-07T05:00:37;14.60;;;11.05;;
67762;SDS011;54566;52.022;5.582;2023-05-07T05:03:04;16.98;;;11.27;;
67762;SDS011;54566;52.022;5.582;2023-05-07T05:05:30;16.77;;;11.93;;
67762;SDS011;54566;52.022;5.582;2023-05-07T05:07:56;24.13;;;11.77;;
67762;SDS011;54566;52.022;5.582;2023-05-07T05:10:23;16.23;;;11.13;;
67762;SDS011;54566;52.022;5.582;2023-05-07T05:12:50;18.65;;;10.95;;
67762;SDS011;54566;52.022;5.582;2023-05-07T05:15:16;17.90;;;11.38;;
67762;SDS011;54566;52.022;5.582;2023-05-07T05:17:42;16.85;;;11.10;;
67762;SDS011;54566;52.022;5.582;2023-05-07T05:20:08;15.27;;;10.23;;
67762;SDS011;54566;52.022;5.582;2023-05-07T05:22:35;16.48;;;10.73;;
67762;SDS011;54566;52.022;5.582;2023-05-07T05:25:01;15.30;;;10.75;;
67762;SDS011;54566;52.022;5.582;2023-05-07T05:27:28;15.40;;;10.70;;
67762;SDS011;54566;52.022;5.582;2023-05-07T05:29:54;16.30;;;10.98;;
67762;SDS011;54566;52.022;5.582;2023-05-07T05:32:20;17.20;;;11.73;;
67762;SDS011;54566;52.022;5.582;2023-05-07T05:34:47;15.25;;;10.60;;
67762;SDS011;54566;52.022;5.582;2023-05-07T05:37:13;15.98;;;11.30;;
67762;SDS011;54566;52.022;5.582;2023-05-07T05:39:39;17.60;;;11.50;;
67762;SDS011;54566;52.022;5.582;2023-05-07T05:42:05;15.93;;;10.73;;
67762;SDS011;54566;52.022;5.582;2023-05-07T05:44:32;18.52;;;11.93;;
67762;SDS011;54566;52.022;5.582;2023-05-07T05:46:58;19.45;;;12.00;;
67762;SDS011;54566;52.022;5.582;2023-05-07T05:49:26;16.08;;;11.73;;
67762;SDS011;54566;52.022;5.582;2023-05-07T05:51:52;17.00;;;11.68;;
67762;SDS011;54566;52.022;5.582;2023-05-07T05:54:20;19.10;;;12.57;;
67762;SDS011;54566;52.022;5.582;2023-05-07T05:56:46;22.05;;;11.90;;
67762;SDS011;54566;52.022;5.582;2023-05-07T05:59:12;21.13;;;12.15;;
67762;SDS011;54566;52.022;5.582;2023-05-07T06:01:38;16.58;;;12.10;;
67762;SDS011;54566;52.022;5.582;2023-05-07T06:04:07;18.45;;;12.20;;
67762;SDS011;54566;52.022;5.582;2023-05-07T06:06:35;18.63;;;12.40;;
67762;SDS011;54566;52.022;5.582;2023-05-07T06:09:03;17.65;;;12.13;;
67762;SDS011;54566;52.022;5.582;2023-05-07T06:11:31;14.95;;;11.85;;
67762;SDS011;54566;52.022;5.582;2023-05-07T06:13:57;17.93;;;12.40;;
67762;SDS011;54566;52.022;5.582;2023-05-07T06:16:24;16.15;;;11.68;;
67762;SDS011;54566;52.022;5.582;2023-05-07T06:18:50;16.00;;;12.50;;
67762;SDS011;54566;52.022;5.582;2023-05-07T06:21:16;14.35;;;11.45;;
67762;SDS011;54566;52.022;5.582;2023-05-07T06:24:03;15.52;;;12.52;;
67762;SDS011;54566;52.022;5.582;2023-05-07T06:26:29;21.25;;;12.48;;
67762;SDS011;54566;52.022;5.582;2023-05-07T06:28:56;19.58;;;12.50;;
67762;SDS011;54566;52.022;5.582;2023-05-07T06:31:22;15.00;;;12.18;;
67762;SDS011;54566;52.022;5.582;2023-05-07T06:33:48;15.80;;;10.77;;
67762;SDS011;54566;52.022;5.582;2023-05-07T06:36:15;20.40;;;12.57;;
67762;SDS011;54566;52.022;5.582;2023-05-07T06:38:41;17.33;;;12.68;;
67762;SDS011;54566;52.022;5.582;2023-05-07T06:41:07;17.98;;;13.90;;
67762;SDS011;54566;52.022;5.582;2023-05-07T06:43:33;17.00;;;11.88;;
67762;SDS011;54566;52.022;5.582;2023-05-07T06:45:59;17.00;;;12.25;;
67762;SDS011;54566;52.022;5.582;2023-05-07T06:48:25;17.15;;;12.95;;
67762;SDS011;54566;52.022;5.582;2023-05-07T06:50:51;18.42;;;12.88;;
67762;SDS011;54566;52.022;5.582;2023-05-07T06:53:18;17.13;;;12.68;;
67762;SDS011;54566;52.022;5.582;2023-05-07T06:55:44;21.77;;;13.00;;
67762;SDS011;54566;52.022;5.582;2023-05-07T06:58:10;22.20;;;13.57;;
67762;SDS011;54566;52.022;5.582;2023-05-07T07:00:36;16.98;;;12.88;;
67762;SDS011;54566;52.022;5.582;2023-05-07T07:03:02;17.90;;;13.57;;
67762;SDS011;54566;52.022;5.582;2023-05-07T07:05:28;15.10;;;12.15;;
67762;SDS011;54566;52.022;5.582;2023-05-07T07:07:54;16.42;;;12.65;;
67762;SDS011;54566;52.022;5.582;2023-05-07T07:10:20;19.02;;;12.93;;
67762;SDS011;54566;52.022;5.582;2023-05-07T07:12:46;18.30;;;12.93;;
67762;SDS011;54566;52.022;5.582;2023-05-07T07:15:13;14.80;;;12.27;;
67762;SDS011;54566;52.022;5.582;2023-05-07T07:17:39;18.98;;;12.85;;
67762;SDS011;54566;52.022;5.582;2023-05-07T07:20:05;19.42;;;12.90;;
67762;SDS011;54566;52.022;5.582;2023-05-07T07:22:31;15.57;;;12.35;;
67762;SDS011;54566;52.022;5.582;2023-05-07T07:24:57;18.50;;;13.23;;
67762;SDS011;54566;52.022;5.582;2023-05-07T07:27:23;17.85;;;12.45;;
67762;SDS011;54566;52.022;5.582;2023-05-07T07:29:49;17.80;;;12.40;;
67762;SDS011;54566;52.022;5.582;2023-05-07T07:32:15;16.63;;;12.43;;
67762;SDS011;54566;52.022;5.582;2023-05-07T07:34:41;18.60;;;13.23;;
67762;SDS011;54566;52.022;5.582;2023-05-07T07:37:07;17.23;;;12.40;;
67762;SDS011;54566;52.022;5.582;2023-05-07T07:39:33;15.73;;;12.70;;
67762;SDS011;54566;52.022;5.582;2023-05-07T07:42:00;15.73;;;12.32;;
67762;SDS011;54566;52.022;5.582;2023-05-07T07:44:27;20.77;;;13.75;;
67762;SDS011;54566;52.022;5.582;2023-05-07T07:46:53;20.05;;;12.98;;
67762;SDS011;54566;52.022;5.582;2023-05-07T07:49:19;16.88;;;12.10;;
67762;SDS011;54566;52.022;5.582;2023-05-07T07:51:45;16.13;;;11.63;;
67762;SDS011;54566;52.022;5.582;2023-05-07T07:54:11;14.02;;;11.25;;
67762;SDS011;54566;52.022;5.582;2023-05-07T07:56:37;18.90;;;12.13;;
67762;SDS011;54566;52.022;5.582;2023-05-07T07:59:03;15.80;;;11.90;;
67762;SDS011;54566;52.022;5.582;2023-05-07T08:01:29;19.13;;;12.10;;
67762;SDS011;54566;52.022;5.582;2023-05-07T08:03:56;14.63;;;11.68;;
67762;SDS011;54566;52.022;5.582;2023-05-07T08:06:25;18.10;;;12.18;;
67762;SDS011;54566;52.022;5.582;2023-05-07T08:08:51;15.50;;;11.23;;
67762;SDS011;54566;52.022;5.582;2023-05-07T08:11:17;15.98;;;12.43;;
67762;SDS011;54566;52.022;5.582;2023-05-07T08:13:43;18.15;;;12.88;;
67762;SDS011;54566;52.022;5.582;2023-05-07T08:16:10;16.55;;;11.75;;
67762;SDS011;54566;52.022;5.582;2023-05-07T08:18:36;16.52;;;13.00;;
67762;SDS011;54566;52.022;5.582;2023-05-07T08:21:02;18.38;;;12.93;;
67762;SDS011;54566;52.022;5.582;2023-05-07T08:23:28;16.52;;;12.52;;
67762;SDS011;54566;52.022;5.582;2023-05-07T08:25:54;13.10;;;11.70;;
67762;SDS011;54566;52.022;5.582;2023-05-07T08:28:20;17.20;;;12.25;;
67762;SDS011;54566;52.022;5.582;2023-05-07T08:30:46;19.00;;;12.98;;
67762;SDS011;54566;52.022;5.582;2023-05-07T08:33:12;22.95;;;14.23;;
67762;SDS011;54566;52.022;5.582;2023-05-07T08:35:38;18.20;;;13.63;;
67762;SDS011;54566;52.022;5.582;2023-05-07T08:38:04;17.20;;;13.10;;
67762;SDS011;54566;52.022;5.582;2023-05-07T08:40:32;18.08;;;13.18;;
67762;SDS011;54566;52.022;5.582;2023-05-07T08:42:59;21.42;;;14.98;;
67762;SDS011;54566;52.022;5.582;2023-05-07T08:45:28;21.95;;;14.32;;
67762;SDS011;54566;52.022;5.582;2023-05-07T08:47:58;20.15;;;11.55;;
67762;SDS011;54566;52.022;5.582;2023-05-07T08:58:53;30.58;;;20.98;;
67762;SDS011;54566;52.022;5.582;2023-05-07T09:01:23;21.98;;;16.33;;
67762;SDS011;54566;52.022;5.582;2023-05-07T09:03:55;19.20;;;13.30;;
67762;SDS011;54566;52.022;5.582;2023-05-07T09:06:50;21.83;;;14.25;;
67762;SDS011;54566;52.022;5.582;2023-05-07T09:12:25;16.83;;;12.18;;
67762;SDS011;54566;52.022;5.582;2023-05-07T09:15:29;16.88;;;12.70;;
67762;SDS011;54566;52.022;5.582;2023-05-07T09:18:13;15.45;;;12.23;;
67762;SDS011;54566;52.022;5.582;2023-05-07T09:20:43;20.15;;;11.82;;
67762;SDS011;54566;52.022;5.582;2023-05-07T09:23:26;23.63;;;12.88;;
67762;SDS011;54566;52.022;5.582;2023-05-07T09:50:08;21.05;;;11.13;;
67762;SDS011;54566;52.022;5.582;2023-05-07T09:52:59;18.83;;;11.95;;
67762;SDS011;54566;52.022;5.582;2023-05-07T09:55:31;19.20;;;10.50;;
67762;SDS011;54566;52.022;5.582;2023-05-07T17:02:35;5.90;;;2.22;;
67762;SDS011;54566;52.022;5.582;2023-05-07T17:05:02;7.85;;;2.10;;
67762;SDS011;54566;52.022;5.582;2023-05-07T17:07:32;4.40;;;2.67;;
67762;SDS011;54566;52.022;5.582;2023-05-07T17:09:58;7.82;;;2.70;;
67762;SDS011;54566;52.022;5.582;2023-05-07T17:12:24;5.75;;;2.60;;
67762;SDS011;54566;52.022;5.582;2023-05-07T17:14:50;5.95;;;2.95;;
67762;SDS011;54566;52.022;5.582;2023-05-07T17:17:17;6.80;;;2.92;;
67762;SDS011;54566;52.022;5.582;2023-05-07T17:19:43;6.03;;;3.20;;
67762;SDS011;54566;52.022;5.582;2023-05-07T17:22:09;4.60;;;3.92;;
67762;SDS011;54566;52.022;5.582;2023-05-07T17:24:35;11.85;;;3.55;;
67762;SDS011;54566;52.022;5.582;2023-05-07T17:27:01;6.00;;;4.38;;
67762;SDS011;54566;52.022;5.582;2023-05-07T17:29:28;5.72;;;4.03;;
67762;SDS011;54566;52.022;5.582;2023-05-07T17:31:54;5.88;;;4.57;;
67762;SDS011;54566;52.022;5.582;2023-05-07T17:34:21;5.40;;;3.97;;
67762;SDS011;54566;52.022;5.582;2023-05-07T17:36:52;5.25;;;4.75;;
67762;SDS011;54566;52.022;5.582;2023-05-07T17:39:18;8.07;;;4.70;;
67762;SDS011;54566;52.022;5.582;2023-05-07T17:41:45;5.95;;;4.20;;
67762;SDS011;54566;52.022;5.582;2023-05-07T17:44:11;5.95;;;3.70;;
67762;SDS011;54566;52.022;5.582;2023-05-07T17:46:37;5.68;;;3.63;;
67762;SDS011;54566;52.022;5.582;2023-05-07T17:49:03;5.75;;;3.40;;
67762;SDS011;54566;52.022;5.582;2023-05-07T17:51:30;5.03;;;3.80;;
67762;SDS011;54566;52.022;5.582;2023-05-07T17:53:57;5.47;;;4.05;;
67762;SDS011;54566;52.022;5.582;2023-05-07T17:56:23;6.50;;;3.78;;
67762;SDS011;54566;52.022;5.582;2023-05-07T17:58:53;4.40;;;3.90;;
67762;SDS011;54566;52.022;5.582;2023-05-07T18:01:20;5.57;;;4.57;;
67762;SDS011;54566;52.022;5.582;2023-05-07T18:03:46;7.55;;;4.47;;
67762;SDS011;54566;52.022;5.582;2023-05-07T18:06:12;6.22;;;4.25;;
67762;SDS011;54566;52.022;5.582;2023-05-07T18:08:43;8.18;;;4.65;;
67762;SDS011;54566;52.022;5.582;2023-05-07T18:11:09;5.38;;;4.50;;
67762;SDS011;54566;52.022;5.582;2023-05-07T18:13:36;13.20;;;4.95;;
67762;SDS011;54566;52.022;5.582;2023-05-07T18:16:02;7.55;;;5.05;;
67762;SDS011;54566;52.022;5.582;2023-05-07T18:18:28;5.95;;;4.47;;
67762;SDS011;54566;52.022;5.582;2023-05-07T18:20:55;7.50;;;4.80;;
67762;SDS011;54566;52.022;5.582;2023-05-07T18:23:21;10.63;;;4.85;;
67762;SDS011;54566;52.022;5.582;2023-05-07T18:25:47;5.60;;;3.95;;
67762;SDS011;54566;52.022;5.582;2023-05-07T18:28:13;6.80;;;4.47;;
67762;SDS011;54566;52.022;5.582;2023-05-07T18:30:39;4.82;;;3.95;;
67762;SDS011;54566;52.022;5.582;2023-05-07T18:33:06;10.25;;;3.90;;
67762;SDS011;54566;52.022;5.582;2023-05-07T18:35:32;9.88;;;3.28;;
67762;SDS011;54566;52.022;5.582;2023-05-07T18:41:02;4.88;;;2.90;;
67762;SDS011;54566;52.022;5.582;2023-05-07T18:43:38;2.80;;;2.47;;
67762;SDS011;54566;52.022;5.582;2023-05-07T18:46:04;2.90;;;2.60;;
67762;SDS011;54566;52.022;5.582;2023-05-07T18:48:30;6.97;;;2.80;;
67762;SDS011;54566;52.022;5.582;2023-05-07T18:50:56;5.53;;;2.60;;
67762;SDS011;54566;52.022;5.582;2023-05-07T18:53:22;4.32;;;2.28;;
67762;SDS011;54566;52.022;5.582;2023-05-07T18:55:49;3.90;;;2.50;;
67762;SDS011;54566;52.022;5.582;2023-05-07T18:58:15;5.45;;;2.13;;
67762;SDS011;54566;52.022;5.582;2023-05-07T19:00:43;2.63;;;2.40;;
67762;SDS011;54566;52.022;5.582;2023-05-07T19:03:10;6.18;;;2.65;;
67762;SDS011;54566;52.022;5.582;2023-05-07T19:05:43;4.22;;;2.95;;
67762;SDS011;54566;52.022;5.582;2023-05-07T19:08:10;3.95;;;2.50;;
67762;SDS011;54566;52.022;5.582;2023-05-07T19:10:36;3.67;;;2.67;;
67762;SDS011;54566;52.022;5.582;2023-05-07T19:13:02;7.13;;;2.85;;
67762;SDS011;54566;52.022;5.582;2023-05-07T19:15:28;6.28;;;2.67;;
67762;SDS011;54566;52.022;5.582;2023-05-07T19:17:54;5.95;;;2.72;;
67762;SDS011;54566;52.022;5.582;2023-05-07T19:20:20;3.85;;;2.90;;
67762;SDS011;54566;52.022;5.582;2023-05-07T19:22:46;6.68;;;3.22;;
67762;SDS011;54566;52.022;5.582;2023-05-07T19:25:13;6.00;;;3.03;;
67762;SDS011;54566;52.022;5.582;2023-05-07T19:27:42;7.15;;;3.30;;
67762;SDS011;54566;52.022;5.582;2023-05-07T19:30:08;10.80;;;3.50;;
67762;SDS011;54566;52.022;5.582;2023-05-07T19:32:34;6.38;;;3.50;;
67762;SDS011;54566;52.022;5.582;2023-05-07T19:35:01;6.35;;;3.78;;
67762;SDS011;54566;52.022;5.582;2023-05-07T19:37:27;5.88;;;4.07;;
67762;SDS011;54566;52.022;5.582;2023-05-07T19:39:54;7.28;;;4.20;;
67762;SDS011;54566;52.022;5.582;2023-05-07T19:42:24;5.55;;;4.43;;
67762;SDS011;54566;52.022;5.582;2023-05-07T19:44:53;5.80;;;4.75;;
67762;SDS011;54566;52.022;5.582;2023-05-07T19:47:19;6.07;;;4.72;;
67762;SDS011;54566;52.022;5.582;2023-05-07T19:49:45;7.70;;;5.57;;
67762;SDS011;54566;52.022;5.582;2023-05-07T19:52:11;6.88;;;5.88;;
67762;SDS011;54566;52.022;5.582;2023-05-07T19:54:37;8.35;;;5.53;;
67762;SDS011;54566;52.022;5.582;2023-05-07T19:57:03;8.43;;;5.65;;
67762;SDS011;54566;52.022;5.582;2023-05-07T19:59:30;9.82;;;5.75;;
67762;SDS011;54566;52.022;5.582;2023-05-07T20:01:56;8.50;;;5.60;;
67762;SDS011;54566;52.022;5.582;2023-05-07T20:04:22;7.35;;;5.25;;
67762;SDS011;54566;52.022;5.582;2023-05-07T20:06:53;7.60;;;4.88;;
67762;SDS011;54566;52.022;5.582;2023-05-07T20:09:19;7.75;;;5.28;;
67762;SDS011;54566;52.022;5.582;2023-05-07T20:11:45;7.65;;;5.70;;
67762;SDS011;54566;52.022;5.582;2023-05-07T20:14:12;11.30;;;5.72;;
67762;SDS011;54566;52.022;5.582;2023-05-07T20:16:38;8.73;;;5.50;;
67762;SDS011;54566;52.022;5.582;2023-05-07T20:19:06;7.60;;;5.60;;
67762;SDS011;54566;52.022;5.582;2023-05-07T20:21:32;10.77;;;6.22;;
67762;SDS011;54566;52.022;5.582;2023-05-07T20:23:58;7.65;;;6.28;;
67762;SDS011;54566;52.022;5.582;2023-05-07T20:26:30;18.05;;;7.43;;
67762;SDS011;54566;52.022;5.582;2023-05-07T20:28:59;8.95;;;6.80;;
67762;SDS011;54566;52.022;5.582;2023-05-07T20:31:27;8.57;;;7.13;;
67762;SDS011;54566;52.022;5.582;2023-05-07T20:33:55;16.23;;;7.55;;
67762;SDS011;54566;52.022;5.582;2023-05-07T20:36:21;11.18;;;8.07;;
67762;SDS011;54566;52.022;5.582;2023-05-07T20:38:50;8.63;;;7.10;;
67762;SDS011;54566;52.022;5.582;2023-05-07T20:41:16;10.32;;;7.40;;
67762;SDS011;54566;52.022;5.582;2023-05-07T20:43:42;9.07;;;6.88;;
67762;SDS011;54566;52.022;5.582;2023-05-07T20:46:08;8.63;;;6.75;;
67762;SDS011;54566;52.022;5.582;2023-05-07T20:48:34;9.18;;;7.47;;
67762;SDS011;54566;52.022;5.582;2023-05-07T20:51:01;8.65;;;6.43;;
67762;SDS011;54566;52.022;5.582;2023-05-07T20:53:28;10.63;;;6.65;;
67762;SDS011;54566;52.022;5.582;2023-05-07T20:55:54;7.72;;;6.30;;
67762;SDS011;54566;52.022;5.582;2023-05-07T20:58:20;9.50;;;7.05;;
67762;SDS011;54566;52.022;5.582;2023-05-07T21:00:53;13.77;;;6.90;;
67762;SDS011;54566;52.022;5.582;2023-05-07T21:03:20;9.55;;;6.65;;
67762;SDS011;54566;52.022;5.582;2023-05-07T21:05:50;14.43;;;7.25;;
67762;SDS011;54566;52.022;5.582;2023-05-07T21:08:19;7.93;;;6.95;;
67762;SDS011;54566;52.022;5.582;2023-05-07T21:10:45;9.07;;;6.75;;
67762;SDS011;54566;52.022;5.582;2023-05-07T21:13:13;9.00;;;7.10;;
67762;SDS011;54566;52.022;5.582;2023-05-07T21:15:40;8.35;;;7.05;;
67762;SDS011;54566;52.022;5.582;2023-05-07T21:18:08;10.15;;;7.57;;
67762;SDS011;54566;52.022;5.582;2023-05-07T21:20:34;10.43;;;7.70;;
67762;SDS011;54566;52.022;5.582;2023-05-07T21:23:00;8.00;;;7.18;;
67762;SDS011;54566;52.022;5.582;2023-05-07T21:25:26;10.55;;;8.00;;
67762;SDS011;54566;52.022;5.582;2023-05-07T21:27:54;9.02;;;7.57;;
67762;SDS011;54566;52.022;5.582;2023-05-07T21:30:20;12.60;;;8.35;;
67762;SDS011;54566;52.022;5.582;2023-05-07T21:32:46;8.55;;;7.65;;
67762;SDS011;54566;52.022;5.582;2023-05-07T21:35:12;10.60;;;8.30;;
67762;SDS011;54566;52.022;5.582;2023-05-07T21:37:38;13.32;;;8.13;;
67762;SDS011;54566;52.022;5.582;2023-05-07T21:40:04;11.32;;;8.10;;
67762;SDS011;54566;52.022;5.582;2023-05-07T21:42:30;11.70;;;8.00;;
67762;SDS011;54566;52.022;5.582;2023-05-07T21:44:56;13.25;;;7.68;;
67762;SDS011;54566;52.022;5.582;2023-05-07T21:47:23;9.27;;;7.47;;
67762;SDS011;54566;52.022;5.582;2023-05-07T21:49:49;10.65;;;8.52;;
67762;SDS011;54566;52.022;5.582;2023-05-07T21:52:16;9.63;;;7.20;;
67762;SDS011;54566;52.022;5.582;2023-05-07T21:54:42;9.52;;;7.85;;
67762;SDS011;54566;52.022;5.582;2023-05-07T21:57:08;9.75;;;8.75;;
67762;SDS011;54566;52.022;5.582;2023-05-07T21:59:34;12.23;;;8.30;;
67762;SDS011;54566;52.022;5.582;2023-05-07T22:02:01;11.05;;;9.48;;
67762;SDS011;54566;52.022;5.582;2023-05-07T22:04:28;11.82;;;8.73;;
67762;SDS011;54566;52.022;5.582;2023-05-07T22:06:54;13.68;;;8.90;;
67762;SDS011;54566;52.022;5.582;2023-05-07T22:09:20;11.15;;;7.63;;
67762;SDS011;54566;52.022;5.582;2023-05-07T22:11:54;13.35;;;9.57;;
67762;SDS011;54566;52.022;5.582;2023-05-07T22:14:20;12.15;;;9.25;;
67762;SDS011;54566;52.022;5.582;2023-05-07T22:16:46;10.13;;;9.07;;
67762;SDS011;54566;52.022;5.582;2023-05-07T22:19:13;14.32;;;9.15;;
67762;SDS011;54566;52.022;5.582;2023-05-07T22:21:39;12.60;;;9.75;;
67762;SDS011;54566;52.022;5.582;2023-05-07T22:24:05;14.20;;;10.55;;
67762;SDS011;54566;52.022;5.582;2023-05-07T22:26:32;11.40;;;9.27;;
67762;SDS011;54566;52.022;5.582;2023-05-07T22:28:58;13.93;;;10.35;;
67762;SDS011;54566;52.022;5.582;2023-05-07T22:31:24;11.45;;;9.88;;
67762;SDS011;54566;52.022;5.582;2023-05-07T22:33:50;11.90;;;9.90;;
67762;SDS011;54566;52.022;5.582;2023-05-07T22:36:16;13.45;;;8.90;;
67762;SDS011;54566;52.022;5.582;2023-05-07T22:38:42;10.45;;;8.48;;
67762;SDS011;54566;52.022;5.582;2023-05-07T22:41:08;11.27;;;9.98;;
67762;SDS011;54566;52.022;5.582;2023-05-07T22:43:34;13.25;;;9.75;;
67762;SDS011;54566;52.022;5.582;2023-05-07T22:46:00;10.88;;;9.70;;
67762;SDS011;54566;52.022;5.582;2023-05-07T22:48:27;16.20;;;10.48;;
67762;SDS011;54566;52.022;5.582;2023-05-07T22:50:53;13.00;;;9.98;;
67762;SDS011;54566;52.022;5.582;2023-05-07T22:53:19;14.50;;;10.85;;
67762;SDS011;54566;52.022;5.582;2023-05-07T22:55:45;20.40;;;11.57;;
67762;SDS011;54566;52.022;5.582;2023-05-07T22:58:11;15.43;;;10.70;;
67762;SDS011;54566;52.022;5.582;2023-05-07T23:00:37;13.48;;;10.32;;
67762;SDS011;54566;52.022;5.582;2023-05-07T23:03:03;12.73;;;10.45;;
67762;SDS011;54566;52.022;5.582;2023-05-07T23:05:29;17.05;;;10.13;;
67762;SDS011;54566;52.022;5.582;2023-05-07T23:07:55;18.90;;;10.82;;
67762;SDS011;54566;52.022;5.582;2023-05-07T23:10:22;14.52;;;9.82;;
67762;SDS011;54566;52.022;5.582;2023-05-07T23:12:48;12.10;;;9.25;;
67762;SDS011;54566;52.022;5.582;2023-05-07T23:15:17;11.52;;;10.15;;
67762;SDS011;54566;52.022;5.582;2023-05-07T23:17:46;18.00;;;9.13;;
67762;SDS011;54566;52.022;5.582;2023-05-07T23:20:13;14.75;;;11.20;;
67762;SDS011;54566;52.022;5.582;2023-05-07T23:22:39;15.55;;;10.55;;
67762;SDS011;54566;52.022;5.582;2023-05-07T23:25:05;13.48;;;10.95;;
67762;SDS011;54566;52.022;5.582;2023-05-07T23:27:35;16.25;;;9.88;;
67762;SDS011;54566;52.022;5.582;2023-05-07T23:30:01;14.57;;;11.35;;
67762;SDS011;54566;52.022;5.582;2023-05-07T23:32:28;13.82;;;11.85;;
67762;SDS011;54566;52.022;5.582;2023-05-07T23:34:55;12.52;;;11.23;;
67762;SDS011;54566;52.022;5.582;2023-05-07T23:37:21;13.65;;;11.02;;
67762;SDS011;54566;52.022;5.582;2023-05-07T23:39:54;14.52;;;11.75;;
67762;SDS011;54566;52.022;5.582;2023-05-07T23:42:20;13.27;;;10.45;;
67762;SDS011;54566;52.022;5.582;2023-05-07T23:44:46;11.93;;;9.85;;
67762;SDS011;54566;52.022;5.582;2023-05-07T23:47:12;14.13;;;12.15;;
67762;SDS011;54566;52.022;5.582;2023-05-07T23:49:39;15.93;;;12.32;;
67762;SDS011;54566;52.022;5.582;2023-05-07T23:52:05;14.75;;;12.10;;
67762;SDS011;54566;52.022;5.582;2023-05-07T23:54:31;16.30;;;13.00;;
67762;SDS011;54566;52.022;5.582;2023-05-07T23:56:57;16.98;;;11.43;;
67762;SDS011;54566;52.022;5.582;2023-05-07T23:59:23;20.55;;;12.80;;
